Time;durP1;ratioP1;P1;durP2;ratioP2;P2;SDS_P1;SDS_P2;PMS_P1;PMS_P2;Temp;Humidity;BMP_temperature;BMP_pressure;BME280_temperature;BME280_humidity;BME280_pressure;Samples;Min_cycle;Max_cycle;Signal;HPM_P1;HPM_P2
2022/12/24 00:00:23;;;;;;;33.45;15.63;;;;;;;;;;5043898;28;20091;-73
2022/12/24 00:02:49;;;;;;;26.75;15.15;;;;;;;;;;5041090;28;20394;-73
2022/12/24 00:05:15;;;;;;;28.88;16.20;;;;;;;;;;5044890;28;20035;-72
2022/12/24 00:07:41;;;;;;;32.15;16.10;;;;;;;;;;5044049;28;20033;-73
2022/12/24 00:10:08;;;;;;;29.58;15.02;;;;;;;;;;5044679;28;20075;-73
2022/12/24 00:12:34;;;;;;;26.10;15.18;;;;;;;;;;5042403;28;20135;-73
2022/12/24 00:15:00;;;;;;;43.80;15.93;;;;;;;;;;5047926;28;20045;-72
2022/12/24 00:17:26;;;;;;;32.33;18.17;;;;;;;;;;5046931;28;20025;-72
2022/12/24 00:19:52;;;;;;;37.05;18.58;;;;;;;;;;5046033;28;20508;-73
2022/12/24 00:22:18;;;;;;;27.52;15.77;;;;;;;;;;5048832;28;20033;-72
2022/12/24 00:24:44;;;;;;;27.30;15.70;;;;;;;;;;5051472;28;20083;-73
2022/12/24 00:27:10;;;;;;;32.30;16.52;;;;;;;;;;5044082;28;20041;-72
2022/12/24 00:29:36;;;;;;;26.60;15.13;;;;;;;;;;5044083;28;20029;-72
2022/12/24 00:32:02;;;;;;;25.05;14.35;;;;;;;;;;5047596;28;20338;-73
2022/12/24 00:34:28;;;;;;;70.97;17.88;;;;;;;;;;5048065;28;20437;-72
2022/12/24 00:36:54;;;;;;;28.23;15.75;;;;;;;;;;5046056;28;20037;-72
2022/12/24 00:39:20;;;;;;;29.48;15.10;;;;;;;;;;5047072;28;20049;-72
2022/12/24 00:41:46;;;;;;;42.65;16.55;;;;;;;;;;5029894;28;20025;-72
2022/12/24 00:44:12;;;;;;;44.72;17.50;;;;;;;;;;5048353;28;20281;-72
2022/12/24 00:46:39;;;;;;;34.22;15.90;;;;;;;;;;5031312;28;20037;-72
2022/12/24 00:49:05;;;;;;;29.50;15.88;;;;;;;;;;5047321;28;20381;-72
2022/12/24 00:51:31;;;;;;;38.78;16.88;;;;;;;;;;5028956;28;20065;-72
2022/12/24 00:53:57;;;;;;;45.70;17.33;;;;;;;;;;5049615;28;20421;-73
2022/12/24 00:56:23;;;;;;;52.80;17.42;;;;;;;;;;5029756;28;20083;-73
2022/12/24 00:58:50;;;;;;;90.25;19.33;;;;;;;;;;5046520;28;20037;-72
2022/12/24 01:01:16;;;;;;;67.10;18.98;;;;;;;;;;5050158;28;20086;-73
2022/12/24 01:03:42;;;;;;;43.30;16.58;;;;;;;;;;5046766;28;20016;-72
2022/12/24 01:06:13;;;;;;;37.28;17.17;;;;;;;;;;5048418;28;20563;-73
2022/12/24 01:08:39;;;;;;;40.65;17.45;;;;;;;;;;5045958;28;20033;-74
2022/12/24 01:11:07;;;;;;;50.80;18.30;;;;;;;;;;5044079;28;20035;-73
2022/12/24 01:13:33;;;;;;;48.33;17.65;;;;;;;;;;5048413;28;20033;-72
2022/12/24 01:15:59;;;;;;;55.60;18.75;;;;;;;;;;5046306;28;20065;-73
2022/12/24 01:18:25;;;;;;;46.05;17.75;;;;;;;;;;5049122;28;20103;-72
2022/12/24 01:20:58;;;;;;;32.55;17.30;;;;;;;;;;5048785;28;20037;-73
2022/12/24 01:23:25;;;;;;;36.70;17.60;;;;;;;;;;5042745;28;20439;-72
2022/12/24 01:25:51;;;;;;;29.63;15.88;;;;;;;;;;5046050;28;20082;-72
2022/12/24 01:28:17;;;;;;;37.83;17.38;;;;;;;;;;5045449;28;20545;-72
2022/12/24 01:30:43;;;;;;;40.03;17.83;;;;;;;;;;5047076;28;20041;-71
2022/12/24 01:33:09;;;;;;;57.15;19.45;;;;;;;;;;5043907;28;20104;-71
2022/12/24 01:35:39;;;;;;;36.28;18.35;;;;;;;;;;5046930;28;20052;-71
2022/12/24 01:38:05;;;;;;;33.08;18.88;;;;;;;;;;5029938;28;20029;-71
2022/12/24 01:43:23;;;;;;;34.33;18.40;;;;;;;;;;5044402;28;20083;-71
2022/12/24 01:45:49;;;;;;;36.83;19.92;;;;;;;;;;5046491;28;20029;-72
2022/12/24 01:48:21;;;;;;;37.35;19.88;;;;;;;;;;5028000;28;20540;-72
2022/12/24 01:50:48;;;;;;;39.13;20.77;;;;;;;;;;5047926;28;20029;-72
2022/12/24 01:53:15;;;;;;;37.35;20.63;;;;;;;;;;5042968;28;20025;-73
2022/12/24 01:55:41;;;;;;;36.10;19.98;;;;;;;;;;5030182;28;20064;-72
2022/12/24 01:58:08;;;;;;;36.35;20.45;;;;;;;;;;5034718;28;20036;-71
2022/12/24 02:00:34;;;;;;;38.05;19.25;;;;;;;;;;5030840;28;20065;-71
2022/12/24 02:03:00;;;;;;;37.55;20.60;;;;;;;;;;5046786;28;20037;-72
2022/12/24 02:05:29;;;;;;;34.63;19.45;;;;;;;;;;5025797;28;20117;-73
2022/12/24 02:07:55;;;;;;;34.00;20.30;;;;;;;;;;5046948;28;20455;-73
2022/12/24 02:10:21;;;;;;;40.55;21.17;;;;;;;;;;5015829;28;20024;-73
2022/12/24 02:12:48;;;;;;;40.80;19.90;;;;;;;;;;5045719;28;20041;-73
2022/12/24 02:15:16;;;;;;;36.30;19.70;;;;;;;;;;5045508;28;20122;-72
2022/12/24 02:17:52;;;;;;;37.10;18.98;;;;;;;;;;5039477;28;20044;-74
2022/12/24 02:20:43;;;;;;;37.40;19.17;;;;;;;;;;5044884;28;20035;-72
2022/12/24 02:23:31;;;;;;;30.85;17.55;;;;;;;;;;5044312;28;20030;-72
2022/12/24 02:26:18;;;;;;;47.00;20.05;;;;;;;;;;5048645;28;20033;-72
2022/12/24 02:28:49;;;;;;;34.15;18.85;;;;;;;;;;5044356;28;20090;-72
2022/12/24 02:31:31;;;;;;;35.85;18.33;;;;;;;;;;5031298;28;20031;-70
2022/12/24 02:34:00;;;;;;;35.55;18.50;;;;;;;;;;5043112;28;20040;-71
2022/12/24 02:36:32;;;;;;;33.90;18.13;;;;;;;;;;5025376;28;20025;-70
2022/12/24 02:39:04;;;;;;;30.85;18.00;;;;;;;;;;5043857;28;20100;-71
2022/12/24 02:42:04;;;;;;;29.77;16.60;;;;;;;;;;5047766;28;20029;-71
2022/12/24 02:44:18;;;;;;;27.55;15.88;;;;;;;;;;5039625;28;20041;-72
2022/12/24 02:46:44;;;;;;;31.73;16.63;;;;;;;;;;5047832;28;20033;-70
2022/12/24 02:49:11;;;;;;;30.38;15.95;;;;;;;;;;5043928;28;20041;-70
2022/12/24 02:51:37;;;;;;;33.90;15.45;;;;;;;;;;5030046;28;20041;-69
2022/12/24 02:54:03;;;;;;;31.25;14.68;;;;;;;;;;5048064;28;20044;-70
2022/12/24 02:56:48;;;;;;;32.60;12.63;;;;;;;;;;5044074;28;20040;-71
2022/12/24 02:59:24;;;;;;;31.23;13.73;;;;;;;;;;5041997;28;20029;-70
2022/12/24 03:02:08;;;;;;;31.42;13.40;;;;;;;;;;5042251;28;20021;-71
2022/12/24 03:04:44;;;;;;;36.70;12.27;;;;;;;;;;5044716;28;20150;-71
2022/12/24 03:07:20;;;;;;;26.27;9.02;;;;;;;;;;5047737;28;20037;-73
2022/12/24 03:10:01;;;;;;;44.60;9.57;;;;;;;;;;5025286;28;20305;-72
2022/12/24 03:12:31;;;;;;;50.25;8.13;;;;;;;;;;5045630;28;20025;-72
2022/12/24 03:14:58;;;;;;;44.78;7.63;;;;;;;;;;5045208;28;20382;-72
2022/12/24 03:17:24;;;;;;;38.63;7.07;;;;;;;;;;5044489;28;20026;-71
2022/12/24 03:19:50;;;;;;;46.42;7.63;;;;;;;;;;5046691;28;20091;-72
2022/12/24 03:22:17;;;;;;;46.38;7.25;;;;;;;;;;5046806;28;20049;-72
2022/12/24 03:24:43;;;;;;;42.72;6.40;;;;;;;;;;5043392;28;20029;-72
2022/12/24 03:27:11;;;;;;;42.17;6.40;;;;;;;;;;5024647;28;20029;-71
2022/12/24 03:29:38;;;;;;;35.35;5.78;;;;;;;;;;5041047;28;20434;-71
2022/12/24 03:32:04;;;;;;;53.75;7.20;;;;;;;;;;5046272;28;20467;-71
2022/12/24 03:34:30;;;;;;;51.30;7.70;;;;;;;;;;5042871;28;20342;-71
2022/12/24 03:36:56;;;;;;;41.35;5.38;;;;;;;;;;5043297;28;20033;-72
2022/12/24 03:39:22;;;;;;;43.40;5.95;;;;;;;;;;5046718;28;20029;-72
2022/12/24 03:41:48;;;;;;;52.97;6.68;;;;;;;;;;5032712;28;20465;-71
2022/12/24 03:44:14;;;;;;;44.42;6.95;;;;;;;;;;5051003;28;20037;-70
2022/12/24 03:46:41;;;;;;;52.97;7.43;;;;;;;;;;5045532;28;20036;-71
2022/12/24 03:49:07;;;;;;;51.63;5.18;;;;;;;;;;5046971;28;20032;-71
2022/12/24 03:51:33;;;;;;;43.90;6.47;;;;;;;;;;5045679;28;20037;-73
2022/12/24 03:53:59;;;;;;;48.35;5.72;;;;;;;;;;5050277;28;20397;-73
2022/12/24 03:56:25;;;;;;;44.05;5.70;;;;;;;;;;5047600;28;20024;-71
2022/12/24 03:58:52;;;;;;;43.15;5.38;;;;;;;;;;5050489;28;20444;-72
2022/12/24 04:01:18;;;;;;;46.53;5.75;;;;;;;;;;5044189;28;20021;-71
2022/12/24 04:03:44;;;;;;;45.08;5.97;;;;;;;;;;5050727;28;20037;-71
2022/12/24 04:06:16;;;;;;;56.60;8.43;;;;;;;;;;5049041;28;20039;-71
2022/12/24 04:08:42;;;;;;;44.30;6.80;;;;;;;;;;5048899;28;20037;-72
2022/12/24 04:11:10;;;;;;;48.17;6.47;;;;;;;;;;5049343;28;20305;-73
2022/12/24 04:13:37;;;;;;;47.30;6.53;;;;;;;;;;5046585;28;20080;-73
2022/12/24 04:16:07;;;;;;;43.42;6.38;;;;;;;;;;5039079;28;20064;-71
2022/12/24 04:18:33;;;;;;;46.13;4.45;;;;;;;;;;5047529;28;20102;-71
2022/12/24 04:20:59;;;;;;;52.78;6.10;;;;;;;;;;5050070;28;20512;-72
2022/12/24 04:23:26;;;;;;;55.50;6.88;;;;;;;;;;5047288;28;21269;-70
2022/12/24 04:25:52;;;;;;;52.88;5.88;;;;;;;;;;5048065;28;20129;-72
2022/12/24 04:28:18;;;;;;;47.28;7.30;;;;;;;;;;5048538;28;20409;-74
2022/12/24 04:30:44;;;;;;;47.97;5.97;;;;;;;;;;5029598;28;20041;-71
2022/12/24 04:33:10;;;;;;;48.58;7.70;;;;;;;;;;5047219;28;20044;-72
2022/12/24 04:35:40;;;;;;;53.10;8.32;;;;;;;;;;5046869;28;20041;-72
2022/12/24 04:38:06;;;;;;;63.97;6.72;;;;;;;;;;5046467;28;20021;-73
2022/12/24 04:40:32;;;;;;;70.00;6.68;;;;;;;;;;5049596;28;20037;-71
2022/12/24 04:42:58;;;;;;;57.90;6.63;;;;;;;;;;5046370;28;20032;-71
2022/12/24 04:45:24;;;;;;;51.40;5.65;;;;;;;;;;5042987;28;20029;-71
2022/12/24 04:47:50;;;;;;;67.45;7.57;;;;;;;;;;5044157;28;20033;-72
2022/12/24 04:50:16;;;;;;;53.55;6.78;;;;;;;;;;5045733;28;20430;-72
2022/12/24 04:52:42;;;;;;;72.38;7.55;;;;;;;;;;5043593;28;20459;-72
2022/12/24 04:55:09;;;;;;;63.25;6.68;;;;;;;;;;5049352;28;20120;-72
2022/12/24 04:57:36;;;;;;;46.25;6.00;;;;;;;;;;5042141;28;20041;-71
2022/12/24 05:00:04;;;;;;;57.33;6.60;;;;;;;;;;5044336;28;20029;-72
2022/12/24 05:02:30;;;;;;;55.08;6.75;;;;;;;;;;5043490;28;20494;-73
2022/12/24 05:04:55;;;;;;;61.00;6.35;;;;;;;;;;5013319;28;20040;-72
2022/12/24 05:07:22;;;;;;;57.25;6.88;;;;;;;;;;5043709;28;20076;-72
2022/12/24 05:09:48;;;;;;;51.35;6.47;;;;;;;;;;5047974;28;20091;-71
2022/12/24 05:12:14;;;;;;;67.28;9.05;;;;;;;;;;5046930;28;20052;-71
2022/12/24 05:14:40;;;;;;;67.25;8.73;;;;;;;;;;5041702;28;20053;-71
2022/12/24 05:17:06;;;;;;;51.95;6.85;;;;;;;;;;5047624;28;20404;-73
2022/12/24 05:19:32;;;;;;;75.95;7.97;;;;;;;;;;5043442;28;20091;-73
2022/12/24 05:27:27;;;;;;;60.20;6.22;;;;;;;;;;5034189;28;20078;-70
2022/12/24 05:29:53;;;;;;;54.15;6.47;;;;;;;;;;5040497;28;20040;-72
2022/12/24 05:32:19;;;;;;;65.88;8.18;;;;;;;;;;5042398;28;20508;-72
2022/12/24 05:34:45;;;;;;;64.18;7.72;;;;;;;;;;5046260;28;20029;-72
2022/12/24 05:37:11;;;;;;;53.17;6.43;;;;;;;;;;5045335;28;20028;-71
2022/12/24 05:39:37;;;;;;;62.08;6.18;;;;;;;;;;5041177;28;20033;-72
2022/12/24 05:42:03;;;;;;;67.20;8.38;;;;;;;;;;5046045;28;20029;-73
2022/12/24 05:44:29;;;;;;;59.42;6.50;;;;;;;;;;5029057;28;20055;-71
2022/12/24 05:46:56;;;;;;;49.65;6.45;;;;;;;;;;5028168;28;20545;-71
2022/12/24 05:49:22;;;;;;;66.07;8.70;;;;;;;;;;5029589;28;20033;-70
2022/12/24 05:51:48;;;;;;;111.95;35.28;;;;;;;;;;5028184;28;20091;-71
2022/12/24 05:54:14;;;;;;;70.63;20.35;;;;;;;;;;5045995;28;20083;-72
2022/12/24 05:56:40;;;;;;;45.47;6.50;;;;;;;;;;5047309;28;20034;-71
2022/12/24 05:59:06;;;;;;;70.07;8.93;;;;;;;;;;5026485;28;20378;-71
2022/12/24 06:01:32;;;;;;;43.85;7.05;;;;;;;;;;5040261;28;20104;-70
2022/12/24 06:03:58;;;;;;;50.25;6.30;;;;;;;;;;5027834;28;20025;-72
2022/12/24 06:06:25;;;;;;;61.13;8.07;;;;;;;;;;5022335;28;20041;-71
2022/12/24 06:08:52;;;;;;;58.28;6.90;;;;;;;;;;5045215;28;20047;-72
2022/12/24 06:11:19;;;;;;;48.60;6.47;;;;;;;;;;5041320;28;20074;-71
2022/12/24 06:13:45;;;;;;;42.17;5.15;;;;;;;;;;5041217;28;20021;-72
2022/12/24 06:16:13;;;;;;;52.55;7.65;;;;;;;;;;5039100;28;20107;-72
2022/12/24 06:18:39;;;;;;;53.20;8.43;;;;;;;;;;5043232;28;20021;-71
2022/12/24 06:21:05;;;;;;;51.72;7.00;;;;;;;;;;5048264;28;20036;-71
2022/12/24 06:23:33;;;;;;;65.07;8.55;;;;;;;;;;5033488;28;20486;-71
2022/12/24 06:25:59;;;;;;;84.15;21.85;;;;;;;;;;5043365;28;20087;-71
2022/12/24 06:28:26;;;;;;;60.45;8.48;;;;;;;;;;5044485;28;20021;-71
2022/12/24 06:30:52;;;;;;;58.22;7.22;;;;;;;;;;5043774;28;20036;-70
2022/12/24 06:33:18;;;;;;;55.42;7.18;;;;;;;;;;5045757;28;20496;-72
2022/12/24 06:35:44;;;;;;;54.13;7.47;;;;;;;;;;5049121;28;20045;-72
2022/12/24 06:38:10;;;;;;;59.20;7.30;;;;;;;;;;5047281;28;20111;-70
2022/12/24 06:40:40;;;;;;;50.92;7.97;;;;;;;;;;5050769;28;20040;-70
2022/12/24 06:43:06;;;;;;;64.30;9.25;;;;;;;;;;5042327;28;20163;-70
2022/12/24 06:45:32;;;;;;;63.45;5.85;;;;;;;;;;5049125;28;20057;-70
2022/12/24 06:47:59;;;;;;;53.47;6.18;;;;;;;;;;5046096;28;20021;-69
2022/12/24 06:50:25;;;;;;;48.17;7.22;;;;;;;;;;5049508;28;20068;-69
2022/12/24 06:52:51;;;;;;;61.05;8.00;;;;;;;;;;5048626;28;20047;-69
2022/12/24 06:55:17;;;;;;;48.25;6.05;;;;;;;;;;5050902;28;20035;-70
2022/12/24 06:57:43;;;;;;;55.08;6.32;;;;;;;;;;5050758;28;20132;-70
2022/12/24 07:00:10;;;;;;;55.22;6.95;;;;;;;;;;5049738;28;20121;-70
2022/12/24 07:02:39;;;;;;;61.70;7.85;;;;;;;;;;5042920;28;20040;-70
2022/12/24 07:05:06;;;;;;;46.22;6.72;;;;;;;;;;5048245;28;20037;-70
2022/12/24 07:07:32;;;;;;;54.58;6.90;;;;;;;;;;5045463;28;20029;-71
2022/12/24 07:09:58;;;;;;;65.28;9.23;;;;;;;;;;5050709;28;20029;-71
2022/12/24 07:12:24;;;;;;;46.08;8.02;;;;;;;;;;5048194;28;20525;-69
2022/12/24 07:14:50;;;;;;;60.25;7.80;;;;;;;;;;5032958;28;20057;-69
2022/12/24 07:17:16;;;;;;;67.30;8.85;;;;;;;;;;5035128;28;20044;-68
2022/12/24 07:19:42;;;;;;;60.05;6.88;;;;;;;;;;5049154;28;20428;-69
2022/12/24 07:22:08;;;;;;;56.25;7.20;;;;;;;;;;5042737;28;20029;-69
2022/12/24 07:24:34;;;;;;;68.68;7.45;;;;;;;;;;5027275;28;20045;-69
2022/12/24 07:27:00;;;;;;;61.40;6.93;;;;;;;;;;5045757;28;20471;-70
2022/12/24 07:29:26;;;;;;;49.83;6.82;;;;;;;;;;5041298;28;20041;-72
2022/12/24 07:31:51;;;;;;;63.45;7.95;;;;;;;;;;5045970;28;20053;-69
2022/12/24 07:34:17;;;;;;;65.53;7.85;;;;;;;;;;5047841;28;20112;-70
2022/12/24 07:36:43;;;;;;;50.88;7.90;;;;;;;;;;5033641;28;20040;-70
2022/12/24 07:39:09;;;;;;;66.30;9.75;;;;;;;;;;5013327;28;20038;-69
2022/12/24 07:41:35;;;;;;;55.25;7.13;;;;;;;;;;5046180;28;20033;-70
2022/12/24 07:44:01;;;;;;;55.92;7.88;;;;;;;;;;5027801;28;20065;-71
2022/12/24 07:46:27;;;;;;;67.20;6.95;;;;;;;;;;5048948;28;20029;-71
2022/12/24 07:48:53;;;;;;;62.95;7.82;;;;;;;;;;5031193;28;20045;-74
2022/12/24 07:51:19;;;;;;;54.15;6.75;;;;;;;;;;5043825;28;20033;-70
2022/12/24 07:53:46;;;;;;;72.38;8.82;;;;;;;;;;5049237;28;20053;-71
2022/12/24 07:56:15;;;;;;;54.45;7.55;;;;;;;;;;5049649;28;20060;-70
2022/12/24 07:58:41;;;;;;;52.78;6.75;;;;;;;;;;5049615;28;20118;-70
2022/12/24 08:01:07;;;;;;;62.45;8.45;;;;;;;;;;5048748;28;20091;-70
2022/12/24 08:03:34;;;;;;;63.70;8.77;;;;;;;;;;5046359;28;20448;-71
2022/12/24 08:06:00;;;;;;;67.18;9.65;;;;;;;;;;5052050;28;20048;-71
2022/12/24 08:08:26;;;;;;;74.05;9.23;;;;;;;;;;5021536;28;20441;-71
2022/12/24 08:10:52;;;;;;;70.32;9.95;;;;;;;;;;5030594;28;20026;-72
2022/12/24 08:13:18;;;;;;;59.72;9.30;;;;;;;;;;5012943;28;20496;-70
2022/12/24 08:15:44;;;;;;;72.38;8.98;;;;;;;;;;5039276;28;20057;-71
2022/12/24 08:18:11;;;;;;;64.15;10.23;;;;;;;;;;5039576;28;20033;-71
2022/12/24 08:20:40;;;;;;;65.75;10.57;;;;;;;;;;5048179;28;20473;-71
2022/12/24 08:23:07;;;;;;;64.50;9.73;;;;;;;;;;5046122;28;20040;-70
2022/12/24 08:25:33;;;;;;;50.95;7.28;;;;;;;;;;5048404;28;20116;-70
2022/12/24 08:27:59;;;;;;;65.93;9.90;;;;;;;;;;5048628;28;20036;-70
2022/12/24 08:30:25;;;;;;;58.25;7.05;;;;;;;;;;5047178;28;20031;-71
2022/12/24 08:32:51;;;;;;;64.47;9.05;;;;;;;;;;5051707;28;20111;-74
2022/12/24 08:35:17;;;;;;;129.40;50.65;;;;;;;;;;5067923;28;20027;-74
2022/12/24 08:37:43;;;;;;;54.80;7.25;;;;;;;;;;5057091;28;20033;-73
2022/12/24 08:40:11;;;;;;;56.50;7.10;;;;;;;;;;5027935;28;20492;-72
2022/12/24 08:42:37;;;;;;;54.92;7.72;;;;;;;;;;5043122;28;20037;-73
2022/12/24 08:45:03;;;;;;;59.15;6.85;;;;;;;;;;5028604;28;20030;-70
2022/12/24 08:47:29;;;;;;;43.65;6.40;;;;;;;;;;5041722;28;20120;-73
2022/12/24 08:49:55;;;;;;;49.70;7.47;;;;;;;;;;5047338;28;20261;-72
2022/12/24 08:52:21;;;;;;;55.72;5.80;;;;;;;;;;5053143;28;20450;-71
2022/12/24 08:54:47;;;;;;;47.10;6.82;;;;;;;;;;5040303;28;20033;-71
2022/12/24 08:57:13;;;;;;;55.47;6.80;;;;;;;;;;5029748;28;20034;-72
2022/12/24 08:59:39;;;;;;;56.47;7.10;;;;;;;;;;5052079;28;20029;-71
2022/12/24 09:02:05;;;;;;;50.35;7.20;;;;;;;;;;5046831;28;20037;-71
2022/12/24 09:04:31;;;;;;;56.97;6.88;;;;;;;;;;5046901;28;20488;-71
2022/12/24 09:06:57;;;;;;;51.13;7.38;;;;;;;;;;5050209;28;20390;-72
2022/12/24 09:09:23;;;;;;;53.90;7.85;;;;;;;;;;5040667;28;20045;-71
2022/12/24 09:11:49;;;;;;;62.85;7.05;;;;;;;;;;5051928;28;20095;-71
2022/12/24 09:14:15;;;;;;;54.80;8.20;;;;;;;;;;5053170;28;20079;-70
2022/12/24 09:16:41;;;;;;;57.22;8.00;;;;;;;;;;5050154;28;20021;-71
2022/12/24 09:19:07;;;;;;;55.38;7.07;;;;;;;;;;5052871;28;20504;-71
2022/12/24 09:21:33;;;;;;;59.72;8.00;;;;;;;;;;5043354;28;21654;-72
2022/12/24 09:24:00;;;;;;;58.55;7.10;;;;;;;;;;5037770;28;20034;-72
2022/12/24 09:26:28;;;;;;;57.97;7.38;;;;;;;;;;5048928;28;20393;-73
2022/12/24 09:28:56;;;;;;;44.78;8.38;;;;;;;;;;5052404;28;20465;-72
2022/12/24 09:31:22;;;;;;;64.05;7.72;;;;;;;;;;5036140;28;20045;-74
2022/12/24 09:33:50;;;;;;;59.75;11.32;;;;;;;;;;5045618;28;20035;-74
2022/12/24 09:36:16;;;;;;;59.47;10.35;;;;;;;;;;5034722;28;20021;-73
2022/12/24 09:38:42;;;;;;;63.70;7.15;;;;;;;;;;5050522;28;20082;-74
2022/12/24 09:41:27;;;;;;;56.33;7.22;;;;;;;;;;5050588;28;20366;-75
2022/12/24 09:44:00;;;;;;;58.97;8.90;;;;;;;;;;5045464;28;20204;-74
2022/12/24 09:46:37;;;;;;;63.53;7.88;;;;;;;;;;5030541;28;20024;-72
2022/12/24 09:49:05;;;;;;;48.13;6.70;;;;;;;;;;5050028;28;20033;-73
2022/12/24 09:51:51;;;;;;;46.53;7.13;;;;;;;;;;5041278;28;20045;-73
2022/12/24 09:54:23;;;;;;;43.30;5.47;;;;;;;;;;5034990;28;20034;-72
2022/12/24 09:56:49;;;;;;;65.47;8.90;;;;;;;;;;5044444;28;20036;-74
2022/12/24 09:59:26;;;;;;;60.33;8.13;;;;;;;;;;5050147;28;20021;-73
2022/12/24 10:01:53;;;;;;;45.35;5.68;;;;;;;;;;5049910;28;20040;-73
2022/12/24 10:04:22;;;;;;;52.47;6.95;;;;;;;;;;5045825;28;20029;-73
2022/12/24 10:06:57;;;;;;;44.40;7.03;;;;;;;;;;5045123;28;20037;-73
2022/12/24 10:09:23;;;;;;;44.15;6.38;;;;;;;;;;5043168;28;20033;-72
2022/12/24 10:11:58;;;;;;;46.55;6.97;;;;;;;;;;5039593;28;20079;-74
2022/12/24 10:14:37;;;;;;;51.33;9.48;;;;;;;;;;5047391;28;20467;-73
2022/12/24 10:17:16;;;;;;;49.88;7.57;;;;;;;;;;5048988;28;20348;-73
2022/12/24 10:19:50;;;;;;;42.92;7.47;;;;;;;;;;5041163;28;20136;-73
2022/12/24 10:22:22;;;;;;;43.08;7.53;;;;;;;;;;5045302;28;20037;-76
2022/12/24 10:24:51;;;;;;;48.60;6.60;;;;;;;;;;5042253;28;20052;-72
2022/12/24 10:27:18;;;;;;;48.03;7.03;;;;;;;;;;5040162;28;20030;-72
2022/12/24 10:29:47;;;;;;;38.50;5.68;;;;;;;;;;5039604;28;20040;-72
2022/12/24 10:32:21;;;;;;;40.40;6.68;;;;;;;;;;5034025;28;20113;-72
2022/12/24 10:35:01;;;;;;;50.15;5.97;;;;;;;;;;5041415;28;20032;-73
2022/12/24 10:37:28;;;;;;;38.78;5.13;;;;;;;;;;5034894;28;20032;-73
2022/12/24 10:39:54;;;;;;;42.03;6.00;;;;;;;;;;5042945;28;20056;-73
2022/12/24 10:42:21;;;;;;;33.33;6.03;;;;;;;;;;5027298;28;20057;-71
2022/12/24 10:44:54;;;;;;;39.50;5.90;;;;;;;;;;5045519;28;20844;-71
2022/12/24 10:47:22;;;;;;;43.33;7.10;;;;;;;;;;5038282;28;20317;-72
2022/12/24 10:49:52;;;;;;;51.22;7.43;;;;;;;;;;5045106;28;20045;-72
2022/12/24 10:52:23;;;;;;;46.67;7.43;;;;;;;;;;5030805;28;20043;-72
2022/12/24 10:55:07;;;;;;;47.97;6.10;;;;;;;;;;5045739;28;20056;-71
2022/12/24 10:57:33;;;;;;;46.47;6.88;;;;;;;;;;5046052;28;20467;-73
2022/12/24 11:00:00;;;;;;;54.97;6.88;;;;;;;;;;5049320;28;20043;-72
2022/12/24 11:02:28;;;;;;;92.18;51.00;;;;;;;;;;5032259;28;20041;-75
2022/12/24 11:04:55;;;;;;;43.95;6.00;;;;;;;;;;5043418;28;20037;-73
2022/12/24 11:07:22;;;;;;;48.75;7.57;;;;;;;;;;5048778;28;20025;-74
2022/12/24 11:09:59;;;;;;;38.13;5.10;;;;;;;;;;5045469;28;20037;-73
2022/12/24 11:12:36;;;;;;;42.33;6.38;;;;;;;;;;5018089;28;20129;-73
2022/12/24 11:15:06;;;;;;;50.90;6.85;;;;;;;;;;5045942;28;20152;-73
2022/12/24 11:17:32;;;;;;;33.85;5.45;;;;;;;;;;5048732;28;20029;-73
2022/12/24 11:19:59;;;;;;;37.60;5.50;;;;;;;;;;5048175;28;20044;-73
2022/12/24 11:22:30;;;;;;;40.25;6.10;;;;;;;;;;5039274;28;20037;-73
2022/12/24 11:25:07;;;;;;;42.05;6.25;;;;;;;;;;5027621;28;20369;-72
2022/12/24 11:27:33;;;;;;;45.08;9.73;;;;;;;;;;5044246;28;20047;-72
2022/12/24 11:30:18;;;;;;;45.25;6.93;;;;;;;;;;5045600;28;20326;-72
2022/12/24 11:32:48;;;;;;;29.13;5.07;;;;;;;;;;5048407;28;20108;-73
2022/12/24 11:35:22;;;;;;;29.30;4.80;;;;;;;;;;5043703;28;20024;-72
2022/12/24 11:38:11;;;;;;;44.83;7.07;;;;;;;;;;5029891;28;20039;-74
2022/12/24 11:40:37;;;;;;;28.25;5.88;;;;;;;;;;5034316;28;20045;-72
2022/12/24 11:43:04;;;;;;;39.20;5.72;;;;;;;;;;5038558;28;20043;-74
2022/12/24 11:45:32;;;;;;;33.05;5.85;;;;;;;;;;5042151;28;20047;-74
2022/12/24 11:47:58;;;;;;;38.17;5.45;;;;;;;;;;5049976;28;20107;-74
2022/12/24 11:50:28;;;;;;;33.40;5.22;;;;;;;;;;5039029;28;20321;-73
2022/12/24 11:53:04;;;;;;;37.47;7.95;;;;;;;;;;5041058;28;20048;-74
2022/12/24 11:55:37;;;;;;;36.03;5.00;;;;;;;;;;5032600;28;20044;-74
2022/12/24 11:58:12;;;;;;;33.42;4.55;;;;;;;;;;5047029;28;20060;-74
2022/12/24 12:00:38;;;;;;;40.10;7.05;;;;;;;;;;5044026;28;20075;-74
2022/12/24 12:03:13;;;;;;;48.72;9.15;;;;;;;;;;5026241;28;20033;-74
2022/12/24 12:05:39;;;;;;;31.30;8.25;;;;;;;;;;5035457;28;20452;-75
2022/12/24 12:08:12;;;;;;;35.20;7.82;;;;;;;;;;5051074;28;20071;-74
2022/12/24 12:10:39;;;;;;;37.63;6.97;;;;;;;;;;5039051;28;20033;-74
2022/12/24 12:13:09;;;;;;;43.90;12.38;;;;;;;;;;5047448;28;20485;-74
2022/12/24 12:15:39;;;;;;;30.45;6.07;;;;;;;;;;5046658;28;20428;-73
2022/12/24 12:18:12;;;;;;;42.17;7.97;;;;;;;;;;5046043;28;20029;-74
2022/12/24 12:20:42;;;;;;;27.10;5.57;;;;;;;;;;5051295;28;20037;-75
2022/12/24 12:23:14;;;;;;;34.83;5.97;;;;;;;;;;5040749;28;20033;-73
2022/12/24 12:25:40;;;;;;;;;;;;;;;;;;5052954;28;20043;-74
2022/12/24 12:28:08;;;;;;;30.52;5.15;;;;;;;;;;5045697;28;19909;-70
2022/12/24 12:30:35;;;;;;;31.00;4.82;;;;;;;;;;5039526;28;20041;-74
2022/12/24 12:33:22;;;;;;;27.20;4.88;;;;;;;;;;5052168;28;20095;-72
2022/12/24 12:35:49;;;;;;;31.92;4.78;;;;;;;;;;5032582;28;20057;-73
2022/12/24 12:38:15;;;;;;;23.50;5.90;;;;;;;;;;5025679;28;20466;-72
2022/12/24 12:40:41;;;;;;;31.48;4.78;;;;;;;;;;5044790;28;20048;-72
2022/12/24 12:43:26;;;;;;;34.40;6.07;;;;;;;;;;5049965;28;20063;-72
2022/12/24 12:46:00;;;;;;;36.58;4.97;;;;;;;;;;5044372;28;20029;-74
2022/12/24 12:48:29;;;;;;;45.50;7.93;;;;;;;;;;5047007;28;20106;-73
2022/12/24 12:51:00;;;;;;;29.75;4.10;;;;;;;;;;5051625;28;20090;-73
2022/12/24 12:53:33;;;;;;;34.47;6.35;;;;;;;;;;5051966;28;20124;-73
2022/12/24 12:56:05;;;;;;;36.20;4.63;;;;;;;;;;5049685;28;20040;-74
2022/12/24 12:58:34;;;;;;;34.28;5.00;;;;;;;;;;5051842;28;20033;-74
2022/12/24 13:01:07;;;;;;;40.15;5.78;;;;;;;;;;5044273;28;20067;-74
2022/12/24 13:03:36;;;;;;;36.05;5.55;;;;;;;;;;5050619;28;20045;-73
2022/12/24 13:06:02;;;;;;;38.53;4.70;;;;;;;;;;5052235;28;20064;-73
2022/12/24 13:08:34;;;;;;;29.15;6.00;;;;;;;;;;5051844;28;20486;-75
2022/12/24 13:11:09;;;;;;;33.33;4.93;;;;;;;;;;5051339;28;20062;-73
2022/12/24 13:16:52;;;;;;;41.75;6.68;;;;;;;;;;5103152;27;1274646;-72
2022/12/24 13:19:25;;;;;;;42.88;5.80;;;;;;;;;;5080726;28;20055;-72
2022/12/24 13:21:53;;;;;;;31.40;6.05;;;;;;;;;;5108049;28;20028;-73
2022/12/24 13:24:19;;;;;;;31.75;4.43;;;;;;;;;;5110740;28;20047;-72
2022/12/24 13:27:00;;;;;;;28.33;4.20;;;;;;;;;;5118338;28;20073;-73
2022/12/24 13:29:31;;;;;;;29.00;4.78;;;;;;;;;;5120893;28;20036;-72
2022/12/24 13:32:17;;;;;;;28.67;5.45;;;;;;;;;;5123021;27;20058;-73
2022/12/24 13:34:46;;;;;;;37.97;4.50;;;;;;;;;;5112612;28;20496;-75
2022/12/24 13:37:23;;;;;;;28.80;4.00;;;;;;;;;;5106360;28;20127;-74
2022/12/24 13:40:13;;;;;;;38.47;5.35;;;;;;;;;;5112259;28;20080;-74
2022/12/24 13:42:59;;;;;;;24.63;3.97;;;;;;;;;;5111841;27;20055;-74
2022/12/24 13:45:31;;;;;;;26.77;4.90;;;;;;;;;;5114890;27;20031;-70
2022/12/24 13:48:06;;;;;;;33.50;4.53;;;;;;;;;;5114833;28;20038;-74
2022/12/24 13:50:38;;;;;;;38.42;4.40;;;;;;;;;;5123136;28;20024;-74
2022/12/24 13:53:05;;;;;;;33.72;6.13;;;;;;;;;;5109014;28;20141;-74
2022/12/24 13:55:31;;;;;;;25.90;3.95;;;;;;;;;;5114348;28;20554;-74
2022/12/24 13:58:04;;;;;;;28.25;4.40;;;;;;;;;;5121599;28;20459;-74
2022/12/24 14:00:38;;;;;;;23.23;3.80;;;;;;;;;;5127370;28;20364;-73
2022/12/24 14:03:05;;;;;;;24.60;3.90;;;;;;;;;;5111357;28;20050;-73
2022/12/24 14:05:36;;;;;;;26.75;5.38;;;;;;;;;;5121022;28;20027;-75
2022/12/24 14:08:05;;;;;;;29.75;5.75;;;;;;;;;;5106688;27;20020;-74
2022/12/24 14:10:54;;;;;;;22.50;4.28;;;;;;;;;;5105564;28;20035;-76
2022/12/24 14:13:43;;;;;;;30.92;4.10;;;;;;;;;;5099426;28;20076;-74
2022/12/24 14:16:11;;;;;;;22.55;3.70;;;;;;;;;;5097501;28;20101;-74
2022/12/24 14:18:39;;;;;;;26.48;4.28;;;;;;;;;;5107856;28;20118;-75
2022/12/24 14:21:06;;;;;;;30.45;5.97;;;;;;;;;;5112277;28;20368;-74
2022/12/24 14:23:40;;;;;;;27.60;6.30;;;;;;;;;;5113795;28;20023;-74
2022/12/24 14:26:11;;;;;;;23.58;4.15;;;;;;;;;;5103388;28;20047;-74
2022/12/24 14:28:39;;;;;;;27.23;4.35;;;;;;;;;;5095442;28;20453;-74
2022/12/24 14:31:13;;;;;;;19.17;4.85;;;;;;;;;;5097914;28;20032;-75
2022/12/24 14:33:39;;;;;;;23.10;4.78;;;;;;;;;;5096214;28;20100;-73
2022/12/24 14:36:05;;;;;;;28.50;5.15;;;;;;;;;;5103793;28;20063;-71
2022/12/24 14:38:32;;;;;;;24.35;4.78;;;;;;;;;;5103792;28;20368;-75
2022/12/24 14:41:00;;;;;;;37.97;11.77;;;;;;;;;;5106529;28;20032;-76
2022/12/24 14:43:39;;;;;;;22.80;6.78;;;;;;;;;;5113456;28;20039;-74
2022/12/24 14:46:13;;;;;;;23.73;5.30;;;;;;;;;;5104418;28;20081;-71